sensor_id;sensor_type;location;lat;lon;timestamp;temperature;humidity
35962;DHT22;22044;48.298;10.008;2023-11-21T00:01:28;7.20;99.90
35962;DHT22;22044;48.298;10.008;2023-11-21T00:04:14;7.20;99.90
35962;DHT22;22044;48.298;10.008;2023-11-21T00:07:00;7.20;99.90
35962;DHT22;22044;48.298;10.008;2023-11-21T00:09:47;7.20;99.90
35962;DHT22;22044;48.298;10.008;2023-11-21T00:12:33;7.20;99.90
35962;DHT22;22044;48.298;10.008;2023-11-21T00:15:19;7.10;99.90
35962;DHT22;22044;48.298;10.008;2023-11-21T00:18:05;7.10;99.90
35962;DHT22;22044;48.298;10.008;2023-11-21T00:20:50;7.10;99.90
35962;DHT22;22044;48.298;10.008;2023-11-21T00:23:36;7.00;99.90
35962;DHT22;22044;48.298;10.008;2023-11-21T00:26:23;7.00;99.90
35962;DHT22;22044;48.298;10.008;2023-11-21T00:29:19;7.00;99.90
35962;DHT22;22044;48.298;10.008;2023-11-21T00:32:05;7.10;99.90
35962;DHT22;22044;48.298;10.008;2023-11-21T00:34:51;7.10;99.90
35962;DHT22;22044;48.298;10.008;2023-11-21T00:37:36;7.00;99.90
35962;DHT22;22044;48.298;10.008;2023-11-21T00:40:24;7.00;99.90
35962;DHT22;22044;48.298;10.008;2023-11-21T00:43:11;7.10;99.90
35962;DHT22;22044;48.298;10.008;2023-11-21T00:45:56;7.10;99.90
35962;DHT22;22044;48.298;10.008;2023-11-21T00:48:42;7.00;99.90
35962;DHT22;22044;48.298;10.008;2023-11-21T00:51:28;7.00;99.90
35962;DHT22;22044;48.298;10.008;2023-11-21T00:54:13;6.90;99.90
35962;DHT22;22044;48.298;10.008;2023-11-21T00:57:01;6.80;99.90
35962;DHT22;22044;48.298;10.008;2023-11-21T00:59:48;6.70;99.90
35962;DHT22;22044;48.298;10.008;2023-11-21T01:02:34;6.80;99.90
35962;DHT22;22044;48.298;10.008;2023-11-21T01:05:20;6.80;99.90
35962;DHT22;22044;48.298;10.008;2023-11-21T01:08:06;6.80;99.90
35962;DHT22;22044;48.298;10.008;2023-11-21T01:10:52;6.80;99.90
35962;DHT22;22044;48.298;10.008;2023-11-21T01:13:38;6.80;99.90
35962;DHT22;22044;48.298;10.008;2023-11-21T01:16:25;6.80;99.90
35962;DHT22;22044;48.298;10.008;2023-11-21T01:19:12;6.90;99.90
35962;DHT22;22044;48.298;10.008;2023-11-21T01:21:57;6.80;99.90
35962;DHT22;22044;48.298;10.008;2023-11-21T01:24:43;6.90;99.90
35962;DHT22;22044;48.298;10.008;2023-11-21T01:27:30;6.90;99.90
35962;DHT22;22044;48.298;10.008;2023-11-21T01:30:15;7.00;99.90
35962;DHT22;22044;48.298;10.008;2023-11-21T01:33:02;6.90;99.90
35962;DHT22;22044;48.298;10.008;2023-11-21T01:35:49;6.90;99.90
35962;DHT22;22044;48.298;10.008;2023-11-21T01:38:34;6.80;99.90
35962;DHT22;22044;48.298;10.008;2023-11-21T01:41:20;6.90;99.90
35962;DHT22;22044;48.298;10.008;2023-11-21T01:44:06;6.80;99.90
35962;DHT22;22044;48.298;10.008;2023-11-21T01:46:53;6.90;99.90
35962;DHT22;22044;48.298;10.008;2023-11-21T01:49:44;6.90;99.90
35962;DHT22;22044;48.298;10.008;2023-11-21T01:52:30;6.90;99.90
35962;DHT22;22044;48.298;10.008;2023-11-21T01:55:17;6.90;99.90
35962;DHT22;22044;48.298;10.008;2023-11-21T01:58:03;6.90;99.90
35962;DHT22;22044;48.298;10.008;2023-11-21T02:00:49;6.80;99.90
35962;DHT22;22044;48.298;10.008;2023-11-21T02:03:35;6.70;99.90
35962;DHT22;22044;48.298;10.008;2023-11-21T02:06:22;6.60;99.90
35962;DHT22;22044;48.298;10.008;2023-11-21T02:09:10;6.60;99.90
35962;DHT22;22044;48.298;10.008;2023-11-21T02:11:59;6.60;99.90
35962;DHT22;22044;48.298;10.008;2023-11-21T02:14:45;6.50;99.90
35962;DHT22;22044;48.298;10.008;2023-11-21T02:17:30;6.50;99.90
35962;DHT22;22044;48.298;10.008;2023-11-21T02:20:17;6.50;99.90
35962;DHT22;22044;48.298;10.008;2023-11-21T02:23:05;6.50;99.90
35962;DHT22;22044;48.298;10.008;2023-11-21T02:25:51;6.50;99.90
35962;DHT22;22044;48.298;10.008;2023-11-21T02:28:37;6.50;99.90
35962;DHT22;22044;48.298;10.008;2023-11-21T02:31:23;6.50;99.90
35962;DHT22;22044;48.298;10.008;2023-11-21T02:34:08;6.50;99.90
35962;DHT22;22044;48.298;10.008;2023-11-21T02:36:54;6.50;99.90
35962;DHT22;22044;48.298;10.008;2023-11-21T02:39:42;6.50;99.90
35962;DHT22;22044;48.298;10.008;2023-11-21T02:42:28;6.40;99.90
35962;DHT22;22044;48.298;10.008;2023-11-21T02:45:15;6.50;99.90
35962;DHT22;22044;48.298;10.008;2023-11-21T02:48:03;6.40;99.90
35962;DHT22;22044;48.298;10.008;2023-11-21T02:50:49;6.40;99.90
35962;DHT22;22044;48.298;10.008;2023-11-21T02:53:35;6.40;99.90
35962;DHT22;22044;48.298;10.008;2023-11-21T02:56:24;6.40;99.90
35962;DHT22;22044;48.298;10.008;2023-11-21T02:59:09;6.40;99.90
35962;DHT22;22044;48.298;10.008;2023-11-21T03:01:55;6.50;99.90
35962;DHT22;22044;48.298;10.008;2023-11-21T03:04:42;6.40;99.90
35962;DHT22;22044;48.298;10.008;2023-11-21T03:07:27;6.40;99.90
35962;DHT22;22044;48.298;10.008;2023-11-21T03:10:13;6.50;99.90
35962;DHT22;22044;48.298;10.008;2023-11-21T03:13:00;6.50;99.90
35962;DHT22;22044;48.298;10.008;2023-11-21T03:15:46;6.50;99.90
35962;DHT22;22044;48.298;10.008;2023-11-21T03:18:31;6.50;99.90
35962;DHT22;22044;48.298;10.008;2023-11-21T03:21:17;6.50;99.90
35962;DHT22;22044;48.298;10.008;2023-11-21T03:24:04;6.50;99.90
35962;DHT22;22044;48.298;10.008;2023-11-21T03:26:50;6.50;99.90
35962;DHT22;22044;48.298;10.008;2023-11-21T03:29:37;6.50;99.90
35962;DHT22;22044;48.298;10.008;2023-11-21T03:32:23;6.50;99.90
35962;DHT22;22044;48.298;10.008;2023-11-21T03:35:09;6.50;99.90
35962;DHT22;22044;48.298;10.008;2023-11-21T03:37:55;6.50;99.90
35962;DHT22;22044;48.298;10.008;2023-11-21T03:40:41;6.50;99.90
35962;DHT22;22044;48.298;10.008;2023-11-21T03:43:26;6.40;99.90
35962;DHT22;22044;48.298;10.008;2023-11-21T03:46:13;6.40;99.90
35962;DHT22;22044;48.298;10.008;2023-11-21T03:48:59;6.40;99.90
35962;DHT22;22044;48.298;10.008;2023-11-21T03:51:44;6.40;99.90
35962;DHT22;22044;48.298;10.008;2023-11-21T03:54:30;6.40;99.90
35962;DHT22;22044;48.298;10.008;2023-11-21T03:57:16;6.40;99.90
35962;DHT22;22044;48.298;10.008;2023-11-21T04:00:02;6.40;99.90
35962;DHT22;22044;48.298;10.008;2023-11-21T04:02:58;6.40;99.90
35962;DHT22;22044;48.298;10.008;2023-11-21T04:05:43;6.40;99.90
35962;DHT22;22044;48.298;10.008;2023-11-21T04:08:30;6.40;99.90
35962;DHT22;22044;48.298;10.008;2023-11-21T04:11:18;6.30;99.90
35962;DHT22;22044;48.298;10.008;2023-11-21T04:14:04;6.30;99.90
35962;DHT22;22044;48.298;10.008;2023-11-21T04:16:49;6.30;99.90
35962;DHT22;22044;48.298;10.008;2023-11-21T04:19:36;6.30;99.90
35962;DHT22;22044;48.298;10.008;2023-11-21T04:22:21;6.30;99.90
35962;DHT22;22044;48.298;10.008;2023-11-21T04:25:08;6.30;99.90
35962;DHT22;22044;48.298;10.008;2023-11-21T04:27:54;6.30;99.90
35962;DHT22;22044;48.298;10.008;2023-11-21T04:30:40;6.30;99.90
35962;DHT22;22044;48.298;10.008;2023-11-21T04:33:25;6.30;99.90
35962;DHT22;22044;48.298;10.008;2023-11-21T04:36:13;6.30;99.90
35962;DHT22;22044;48.298;10.008;2023-11-21T04:38:58;6.30;99.90
35962;DHT22;22044;48.298;10.008;2023-11-21T04:41:44;6.30;99.90
35962;DHT22;22044;48.298;10.008;2023-11-21T04:44:30;6.30;99.90
35962;DHT22;22044;48.298;10.008;2023-11-21T04:47:16;6.40;99.90
35962;DHT22;22044;48.298;10.008;2023-11-21T04:50:05;6.40;99.90
35962;DHT22;22044;48.298;10.008;2023-11-21T04:52:52;6.30;99.90
35962;DHT22;22044;48.298;10.008;2023-11-21T04:55:38;6.20;99.90
35962;DHT22;22044;48.298;10.008;2023-11-21T04:58:24;6.20;99.90
35962;DHT22;22044;48.298;10.008;2023-11-21T05:01:09;6.20;99.90
35962;DHT22;22044;48.298;10.008;2023-11-21T05:03:56;6.20;99.90
35962;DHT22;22044;48.298;10.008;2023-11-21T05:06:42;6.20;99.90
35962;DHT22;22044;48.298;10.008;2023-11-21T05:09:30;6.20;99.90
35962;DHT22;22044;48.298;10.008;2023-11-21T05:12:16;6.20;99.90
35962;DHT22;22044;48.298;10.008;2023-11-21T05:15:04;6.20;99.90
35962;DHT22;22044;48.298;10.008;2023-11-21T05:17:53;6.20;99.90
35962;DHT22;22044;48.298;10.008;2023-11-21T05:20:39;6.20;99.90
35962;DHT22;22044;48.298;10.008;2023-11-21T05:23:25;6.10;99.90
35962;DHT22;22044;48.298;10.008;2023-11-21T05:26:12;6.10;99.90
35962;DHT22;22044;48.298;10.008;2023-11-21T05:28:58;6.20;99.90
35962;DHT22;22044;48.298;10.008;2023-11-21T05:31:43;6.20;99.90
35962;DHT22;22044;48.298;10.008;2023-11-21T05:34:29;6.20;99.90
35962;DHT22;22044;48.298;10.008;2023-11-21T05:37:14;6.20;99.90
35962;DHT22;22044;48.298;10.008;2023-11-21T05:40:02;6.20;99.90
35962;DHT22;22044;48.298;10.008;2023-11-21T05:42:51;6.20;99.90
35962;DHT22;22044;48.298;10.008;2023-11-21T05:45:37;6.20;99.90
35962;DHT22;22044;48.298;10.008;2023-11-21T05:48:23;6.30;99.90
35962;DHT22;22044;48.298;10.008;2023-11-21T05:51:10;6.30;99.90
35962;DHT22;22044;48.298;10.008;2023-11-21T05:53:56;6.30;99.90
35962;DHT22;22044;48.298;10.008;2023-11-21T05:56:42;6.40;99.90
35962;DHT22;22044;48.298;10.008;2023-11-21T05:59:30;6.40;99.90
35962;DHT22;22044;48.298;10.008;2023-11-21T06:02:15;6.50;99.90
35962;DHT22;22044;48.298;10.008;2023-11-21T06:05:01;6.30;99.90
35962;DHT22;22044;48.298;10.008;2023-11-21T06:07:48;6.30;99.90
35962;DHT22;22044;48.298;10.008;2023-11-21T06:10:33;6.30;99.90
35962;DHT22;22044;48.298;10.008;2023-11-21T06:13:19;6.30;99.90
35962;DHT22;22044;48.298;10.008;2023-11-21T06:16:10;6.30;99.90
35962;DHT22;22044;48.298;10.008;2023-11-21T06:18:57;6.30;99.90
35962;DHT22;22044;48.298;10.008;2023-11-21T06:21:46;6.30;99.90
35962;DHT22;22044;48.298;10.008;2023-11-21T06:24:32;6.30;99.90
35962;DHT22;22044;48.298;10.008;2023-11-21T06:27:17;6.10;99.90
35962;DHT22;22044;48.298;10.008;2023-11-21T06:30:06;6.20;99.90
35962;DHT22;22044;48.298;10.008;2023-11-21T06:32:54;6.20;99.90
35962;DHT22;22044;48.298;10.008;2023-11-21T06:35:40;6.20;99.90
35962;DHT22;22044;48.298;10.008;2023-11-21T06:38:25;6.20;99.90
35962;DHT22;22044;48.298;10.008;2023-11-21T06:41:14;6.30;99.90
35962;DHT22;22044;48.298;10.008;2023-11-21T06:44:00;6.40;99.90
35962;DHT22;22044;48.298;10.008;2023-11-21T06:46:46;6.30;99.90
35962;DHT22;22044;48.298;10.008;2023-11-21T06:49:34;6.30;99.90
35962;DHT22;22044;48.298;10.008;2023-11-21T06:52:20;6.40;99.90
35962;DHT22;22044;48.298;10.008;2023-11-21T06:55:07;6.40;99.90
35962;DHT22;22044;48.298;10.008;2023-11-21T06:57:54;6.40;99.90
35962;DHT22;22044;48.298;10.008;2023-11-21T07:00:39;6.40;99.90
35962;DHT22;22044;48.298;10.008;2023-11-21T07:03:25;6.40;99.90
35962;DHT22;22044;48.298;10.008;2023-11-21T07:06:13;6.40;99.90
35962;DHT22;22044;48.298;10.008;2023-11-21T07:08:58;6.30;99.90
35962;DHT22;22044;48.298;10.008;2023-11-21T07:11:45;6.20;99.90
35962;DHT22;22044;48.298;10.008;2023-11-21T07:14:32;6.20;99.90
35962;DHT22;22044;48.298;10.008;2023-11-21T07:17:18;6.30;99.90
35962;DHT22;22044;48.298;10.008;2023-11-21T07:20:04;6.40;99.90
35962;DHT22;22044;48.298;10.008;2023-11-21T07:22:59;6.30;99.90
35962;DHT22;22044;48.298;10.008;2023-11-21T07:25:45;6.40;99.90
35962;DHT22;22044;48.298;10.008;2023-11-21T07:28:31;6.40;99.90
35962;DHT22;22044;48.298;10.008;2023-11-21T07:31:17;6.40;99.90
35962;DHT22;22044;48.298;10.008;2023-11-21T07:34:03;6.40;99.90
35962;DHT22;22044;48.298;10.008;2023-11-21T07:36:49;6.50;99.90
35962;DHT22;22044;48.298;10.008;2023-11-21T07:39:36;6.40;99.90
35962;DHT22;22044;48.298;10.008;2023-11-21T07:42:21;6.30;99.90
35962;DHT22;22044;48.298;10.008;2023-11-21T07:45:08;6.30;99.90
35962;DHT22;22044;48.298;10.008;2023-11-21T07:47:53;6.30;99.90
35962;DHT22;22044;48.298;10.008;2023-11-21T07:50:39;6.30;99.90
35962;DHT22;22044;48.298;10.008;2023-11-21T07:53:25;6.30;99.90
35962;DHT22;22044;48.298;10.008;2023-11-21T07:56:14;6.30;99.90
35962;DHT22;22044;48.298;10.008;2023-11-21T07:59:00;6.40;99.90
35962;DHT22;22044;48.298;10.008;2023-11-21T08:01:45;6.40;99.90
35962;DHT22;22044;48.298;10.008;2023-11-21T08:04:31;6.40;99.90
35962;DHT22;22044;48.298;10.008;2023-11-21T08:07:17;6.40;99.90
35962;DHT22;22044;48.298;10.008;2023-11-21T08:10:03;6.40;99.90
35962;DHT22;22044;48.298;10.008;2023-11-21T08:12:50;6.40;99.90
35962;DHT22;22044;48.298;10.008;2023-11-21T08:15:36;6.40;99.90
35962;DHT22;22044;48.298;10.008;2023-11-21T08:18:22;6.40;99.90
35962;DHT22;22044;48.298;10.008;2023-11-21T08:21:08;6.50;99.90
35962;DHT22;22044;48.298;10.008;2023-11-21T08:23:56;6.40;99.90
35962;DHT22;22044;48.298;10.008;2023-11-21T08:26:42;6.50;99.90
35962;DHT22;22044;48.298;10.008;2023-11-21T08:29:29;6.50;99.90
35962;DHT22;22044;48.298;10.008;2023-11-21T08:32:15;6.70;99.90
35962;DHT22;22044;48.298;10.008;2023-11-21T08:35:01;6.60;99.90
35962;DHT22;22044;48.298;10.008;2023-11-21T08:37:46;6.60;99.90
35962;DHT22;22044;48.298;10.008;2023-11-21T08:40:32;6.60;99.90
35962;DHT22;22044;48.298;10.008;2023-11-21T08:43:18;6.70;99.90
35962;DHT22;22044;48.298;10.008;2023-11-21T08:46:06;6.80;99.90
35962;DHT22;22044;48.298;10.008;2023-11-21T08:48:52;6.90;99.90
35962;DHT22;22044;48.298;10.008;2023-11-21T08:51:38;6.90;99.90
35962;DHT22;22044;48.298;10.008;2023-11-21T08:54:24;7.00;99.90
35962;DHT22;22044;48.298;10.008;2023-11-21T08:57:09;7.00;99.90
35962;DHT22;22044;48.298;10.008;2023-11-21T08:59:55;7.10;99.90
35962;DHT22;22044;48.298;10.008;2023-11-21T09:02:42;7.10;99.90
35962;DHT22;22044;48.298;10.008;2023-11-21T09:05:30;7.10;99.90
35962;DHT22;22044;48.298;10.008;2023-11-21T09:08:16;7.10;99.90
35962;DHT22;22044;48.298;10.008;2023-11-21T09:11:01;7.20;99.90
35962;DHT22;22044;48.298;10.008;2023-11-21T09:13:47;7.20;99.90
35962;DHT22;22044;48.298;10.008;2023-11-21T09:16:45;7.30;99.90
35962;DHT22;22044;48.298;10.008;2023-11-21T09:19:32;7.30;99.90
35962;DHT22;22044;48.298;10.008;2023-11-21T09:22:18;7.40;99.90
35962;DHT22;22044;48.298;10.008;2023-11-21T09:25:04;7.40;99.90
35962;DHT22;22044;48.298;10.008;2023-11-21T09:27:50;7.40;99.90
35962;DHT22;22044;48.298;10.008;2023-11-21T09:30:36;7.50;99.90
35962;DHT22;22044;48.298;10.008;2023-11-21T09:33:22;7.50;99.90
35962;DHT22;22044;48.298;10.008;2023-11-21T09:36:12;7.40;99.90
35962;DHT22;22044;48.298;10.008;2023-11-21T09:38:59;7.40;99.90
35962;DHT22;22044;48.298;10.008;2023-11-21T09:41:49;7.50;99.90
35962;DHT22;22044;48.298;10.008;2023-11-21T09:44:41;7.60;99.90
35962;DHT22;22044;48.298;10.008;2023-11-21T09:47:29;7.60;99.90
35962;DHT22;22044;48.298;10.008;2023-11-21T09:50:17;7.70;99.90
35962;DHT22;22044;48.298;10.008;2023-11-21T09:53:11;7.80;99.90
35962;DHT22;22044;48.298;10.008;2023-11-21T09:55:59;7.90;99.90
35962;DHT22;22044;48.298;10.008;2023-11-21T09:58:46;8.00;99.90
35962;DHT22;22044;48.298;10.008;2023-11-21T10:01:32;8.20;99.90
35962;DHT22;22044;48.298;10.008;2023-11-21T10:04:18;8.40;99.90
35962;DHT22;22044;48.298;10.008;2023-11-21T10:07:06;8.50;99.90
35962;DHT22;22044;48.298;10.008;2023-11-21T10:09:55;8.60;99.90
35962;DHT22;22044;48.298;10.008;2023-11-21T10:12:42;8.70;99.90
35962;DHT22;22044;48.298;10.008;2023-11-21T10:15:29;8.70;99.90
35962;DHT22;22044;48.298;10.008;2023-11-21T10:18:19;8.70;99.90
35962;DHT22;22044;48.298;10.008;2023-11-21T10:21:06;8.50;99.90
35962;DHT22;22044;48.298;10.008;2023-11-21T10:23:54;8.50;99.90
35962;DHT22;22044;48.298;10.008;2023-11-21T10:26:41;8.50;99.90
35962;DHT22;22044;48.298;10.008;2023-11-21T10:29:29;8.50;99.90
35962;DHT22;22044;48.298;10.008;2023-11-21T10:32:14;8.60;99.90
35962;DHT22;22044;48.298;10.008;2023-11-21T10:35:00;8.60;99.90
35962;DHT22;22044;48.298;10.008;2023-11-21T10:37:59;8.60;99.90
35962;DHT22;22044;48.298;10.008;2023-11-21T10:40:45;8.60;99.90
35962;DHT22;22044;48.298;10.008;2023-11-21T10:43:33;8.60;99.90
35962;DHT22;22044;48.298;10.008;2023-11-21T10:46:19;8.70;99.90
35962;DHT22;22044;48.298;10.008;2023-11-21T10:49:05;8.70;99.90
35962;DHT22;22044;48.298;10.008;2023-11-21T10:51:51;8.80;99.90
35962;DHT22;22044;48.298;10.008;2023-11-21T10:54:37;8.80;99.90
35962;DHT22;22044;48.298;10.008;2023-11-21T10:57:23;9.00;99.90
35962;DHT22;22044;48.298;10.008;2023-11-21T11:00:12;9.10;99.90
35962;DHT22;22044;48.298;10.008;2023-11-21T11:02:59;9.10;99.90
35962;DHT22;22044;48.298;10.008;2023-11-21T11:05:45;9.20;99.90
35962;DHT22;22044;48.298;10.008;2023-11-21T11:08:36;9.20;99.90
35962;DHT22;22044;48.298;10.008;2023-11-21T11:11:22;9.30;99.90
35962;DHT22;22044;48.298;10.008;2023-11-21T11:14:10;9.30;99.90
35962;DHT22;22044;48.298;10.008;2023-11-21T11:16:58;9.40;99.90
35962;DHT22;22044;48.298;10.008;2023-11-21T11:19:45;9.40;99.90
35962;DHT22;22044;48.298;10.008;2023-11-21T11:22:37;9.50;99.90
35962;DHT22;22044;48.298;10.008;2023-11-21T11:25:35;9.40;99.90
35962;DHT22;22044;48.298;10.008;2023-11-21T11:28:32;9.40;99.90
35962;DHT22;22044;48.298;10.008;2023-11-21T11:31:31;9.30;99.90
35962;DHT22;22044;48.298;10.008;2023-11-21T11:34:29;9.30;99.90
35962;DHT22;22044;48.298;10.008;2023-11-21T11:37:16;9.40;99.90
35962;DHT22;22044;48.298;10.008;2023-11-21T11:40:06;9.30;99.90
35962;DHT22;22044;48.298;10.008;2023-11-21T11:42:58;9.30;99.90
35962;DHT22;22044;48.298;10.008;2023-11-21T11:45:44;9.40;99.90
35962;DHT22;22044;48.298;10.008;2023-11-21T11:48:38;9.40;99.90
35962;DHT22;22044;48.298;10.008;2023-11-21T11:51:25;9.50;99.90
35962;DHT22;22044;48.298;10.008;2023-11-21T11:54:11;9.30;99.90
35962;DHT22;22044;48.298;10.008;2023-11-21T11:56:59;9.40;99.90
35962;DHT22;22044;48.298;10.008;2023-11-21T12:00:07;9.30;99.90
35962;DHT22;22044;48.298;10.008;2023-11-21T12:02:56;9.30;99.90
35962;DHT22;22044;48.298;10.008;2023-11-21T12:05:43;9.40;99.90
35962;DHT22;22044;48.298;10.008;2023-11-21T12:08:35;9.40;99.90
35962;DHT22;22044;48.298;10.008;2023-11-21T12:11:21;9.50;99.90
35962;DHT22;22044;48.298;10.008;2023-11-21T12:14:16;9.40;99.90
35962;DHT22;22044;48.298;10.008;2023-11-21T12:17:02;9.60;99.90
35962;DHT22;22044;48.298;10.008;2023-11-21T12:19:49;9.60;99.90
35962;DHT22;22044;48.298;10.008;2023-11-21T12:22:36;9.80;99.90
35962;DHT22;22044;48.298;10.008;2023-11-21T12:25:24;9.80;99.90
35962;DHT22;22044;48.298;10.008;2023-11-21T12:28:12;9.70;99.90
35962;DHT22;22044;48.298;10.008;2023-11-21T12:30:58;9.80;99.90
35962;DHT22;22044;48.298;10.008;2023-11-21T12:33:44;9.80;99.90
35962;DHT22;22044;48.298;10.008;2023-11-21T12:36:30;9.80;99.90
35962;DHT22;22044;48.298;10.008;2023-11-21T12:39:15;9.90;99.90
35962;DHT22;22044;48.298;10.008;2023-11-21T12:42:03;10.00;99.90
35962;DHT22;22044;48.298;10.008;2023-11-21T12:45:07;10.10;99.90
35962;DHT22;22044;48.298;10.008;2023-11-21T12:47:55;10.20;99.90
35962;DHT22;22044;48.298;10.008;2023-11-21T12:50:43;10.20;99.90
35962;DHT22;22044;48.298;10.008;2023-11-21T12:53:33;10.20;99.90
35962;DHT22;22044;48.298;10.008;2023-11-21T12:56:22;10.20;99.90
35962;DHT22;22044;48.298;10.008;2023-11-21T12:59:10;10.10;99.90
35962;DHT22;22044;48.298;10.008;2023-11-21T13:01:58;9.90;99.90
35962;DHT22;22044;48.298;10.008;2023-11-21T13:04:52;9.80;99.90
35962;DHT22;22044;48.298;10.008;2023-11-21T13:07:41;9.70;99.90
35962;DHT22;22044;48.298;10.008;2023-11-21T13:10:31;9.60;99.90
35962;DHT22;22044;48.298;10.008;2023-11-21T13:13:20;9.60;99.90
35962;DHT22;22044;48.298;10.008;2023-11-21T13:16:08;9.40;99.90
35962;DHT22;22044;48.298;10.008;2023-11-21T13:18:54;9.40;99.90
35962;DHT22;22044;48.298;10.008;2023-11-21T13:21:40;9.30;99.90
35962;DHT22;22044;48.298;10.008;2023-11-21T13:24:25;9.40;99.90
35962;DHT22;22044;48.298;10.008;2023-11-21T13:27:11;9.40;99.90
35962;DHT22;22044;48.298;10.008;2023-11-21T13:29:59;9.30;99.90
35962;DHT22;22044;48.298;10.008;2023-11-21T13:32:46;9.30;99.90
35962;DHT22;22044;48.298;10.008;2023-11-21T13:35:36;9.20;99.90
35962;DHT22;22044;48.298;10.008;2023-11-21T13:38:26;9.00;99.90
35962;DHT22;22044;48.298;10.008;2023-11-21T13:41:16;8.60;99.90
35962;DHT22;22044;48.298;10.008;2023-11-21T13:44:02;8.60;99.90
35962;DHT22;22044;48.298;10.008;2023-11-21T13:47:00;8.70;99.90
35962;DHT22;22044;48.298;10.008;2023-11-21T13:49:47;8.80;99.90
35962;DHT22;22044;48.298;10.008;2023-11-21T13:52:33;8.90;99.90
35962;DHT22;22044;48.298;10.008;2023-11-21T13:55:20;8.90;99.90
35962;DHT22;22044;48.298;10.008;2023-11-21T13:58:09;8.90;99.90
35962;DHT22;22044;48.298;10.008;2023-11-21T14:01:01;8.90;99.90
35962;DHT22;22044;48.298;10.008;2023-11-21T14:03:50;9.00;99.90
35962;DHT22;22044;48.298;10.008;2023-11-21T14:06:42;8.80;99.90
35962;DHT22;22044;48.298;10.008;2023-11-21T14:09:32;8.60;99.90
35962;DHT22;22044;48.298;10.008;2023-11-21T14:12:20;8.60;99.90
35962;DHT22;22044;48.298;10.008;2023-11-21T14:15:06;8.60;99.90
35962;DHT22;22044;48.298;10.008;2023-11-21T14:17:53;8.60;99.90
35962;DHT22;22044;48.298;10.008;2023-11-21T14:20:40;8.50;99.90
35962;DHT22;22044;48.298;10.008;2023-11-21T14:23:27;8.50;99.90
35962;DHT22;22044;48.298;10.008;2023-11-21T14:26:14;8.40;99.90
35962;DHT22;22044;48.298;10.008;2023-11-21T14:29:01;8.40;99.90
35962;DHT22;22044;48.298;10.008;2023-11-21T14:31:47;8.40;99.90
35962;DHT22;22044;48.298;10.008;2023-11-21T14:34:32;8.50;99.90
35962;DHT22;22044;48.298;10.008;2023-11-21T14:37:18;8.50;99.90
35962;DHT22;22044;48.298;10.008;2023-11-21T14:40:06;8.50;99.90
35962;DHT22;22044;48.298;10.008;2023-11-21T14:42:53;8.50;99.90
35962;DHT22;22044;48.298;10.008;2023-11-21T14:45:41;8.50;99.90
35962;DHT22;22044;48.298;10.008;2023-11-21T14:48:26;8.50;99.90
35962;DHT22;22044;48.298;10.008;2023-11-21T14:51:26;8.50;99.90
35962;DHT22;22044;48.298;10.008;2023-11-21T14:54:15;8.40;99.90
35962;DHT22;22044;48.298;10.008;2023-11-21T14:57:11;8.30;99.90
35962;DHT22;22044;48.298;10.008;2023-11-21T14:59:59;8.20;99.90
35962;DHT22;22044;48.298;10.008;2023-11-21T15:02:44;8.30;99.90
35962;DHT22;22044;48.298;10.008;2023-11-21T15:05:33;8.30;99.90
35962;DHT22;22044;48.298;10.008;2023-11-21T15:08:19;8.40;99.90
35962;DHT22;22044;48.298;10.008;2023-11-21T15:11:05;8.50;99.90
35962;DHT22;22044;48.298;10.008;2023-11-21T15:14:00;8.60;99.90
35962;DHT22;22044;48.298;10.008;2023-11-21T15:16:51;8.60;99.90
35962;DHT22;22044;48.298;10.008;2023-11-21T15:19:41;8.50;99.90
35962;DHT22;22044;48.298;10.008;2023-11-21T15:22:28;8.50;99.90
35962;DHT22;22044;48.298;10.008;2023-11-21T15:25:13;8.50;99.90
35962;DHT22;22044;48.298;10.008;2023-11-21T15:27:59;8.60;99.90
35962;DHT22;22044;48.298;10.008;2023-11-21T15:30:46;8.70;99.90
35962;DHT22;22044;48.298;10.008;2023-11-21T15:33:35;8.70;99.90
35962;DHT22;22044;48.298;10.008;2023-11-21T15:36:21;8.80;99.90
35962;DHT22;22044;48.298;10.008;2023-11-21T15:39:07;8.80;99.90
